sensor_id;sensor_type;location;lat;lon;timestamp;P1;durP1;ratioP1;P2;durP2;ratioP2
80332;SDS011;69652;51.864;-2.246;2023-08-17T00:02:10;9.00;;;2.67;;
80332;SDS011;69652;51.864;-2.246;2023-08-17T00:04:37;7.63;;;2.80;;
80332;SDS011;69652;51.864;-2.246;2023-08-17T00:07:03;5.60;;;2.00;;
80332;SDS011;69652;51.864;-2.246;2023-08-17T00:09:29;5.50;;;2.13;;
80332;SDS011;69652;51.864;-2.246;2023-08-17T00:11:54;6.60;;;2.60;;
80332;SDS011;69652;51.864;-2.246;2023-08-17T00:14:19;6.38;;;2.17;;
80332;SDS011;69652;51.864;-2.246;2023-08-17T00:16:45;5.93;;;2.63;;
80332;SDS011;69652;51.864;-2.246;2023-08-17T00:19:10;6.90;;;2.20;;
80332;SDS011;69652;51.864;-2.246;2023-08-17T00:21:36;4.25;;;2.00;;
80332;SDS011;69652;51.864;-2.246;2023-08-17T00:24:02;5.45;;;2.25;;
80332;SDS011;69652;51.864;-2.246;2023-08-17T00:26:27;4.93;;;2.13;;
80332;SDS011;69652;51.864;-2.246;2023-08-17T00:28:53;5.10;;;2.28;;
80332;SDS011;69652;51.864;-2.246;2023-08-17T00:31:18;6.65;;;2.50;;
80332;SDS011;69652;51.864;-2.246;2023-08-17T00:33:48;8.15;;;2.65;;
80332;SDS011;69652;51.864;-2.246;2023-08-17T00:36:13;5.32;;;2.45;;
80332;SDS011;69652;51.864;-2.246;2023-08-17T00:38:40;6.80;;;2.60;;
80332;SDS011;69652;51.864;-2.246;2023-08-17T00:41:05;5.47;;;2.20;;
80332;SDS011;69652;51.864;-2.246;2023-08-17T00:43:31;6.53;;;2.53;;
80332;SDS011;69652;51.864;-2.246;2023-08-17T00:45:56;3.88;;;1.65;;
80332;SDS011;69652;51.864;-2.246;2023-08-17T00:48:22;7.07;;;1.73;;
80332;SDS011;69652;51.864;-2.246;2023-08-17T00:50:48;3.75;;;1.75;;
80332;SDS011;69652;51.864;-2.246;2023-08-17T00:53:15;8.82;;;1.83;;
80332;SDS011;69652;51.864;-2.246;2023-08-17T00:55:41;5.03;;;1.40;;
80332;SDS011;69652;51.864;-2.246;2023-08-17T00:58:07;3.30;;;1.63;;
80332;SDS011;69652;51.864;-2.246;2023-08-17T01:00:33;3.75;;;1.40;;
80332;SDS011;69652;51.864;-2.246;2023-08-17T01:02:58;4.25;;;1.60;;
80332;SDS011;69652;51.864;-2.246;2023-08-17T01:05:24;2.72;;;1.00;;
80332;SDS011;69652;51.864;-2.246;2023-08-17T01:07:49;3.28;;;1.35;;
80332;SDS011;69652;51.864;-2.246;2023-08-17T01:10:15;5.95;;;1.38;;
80332;SDS011;69652;51.864;-2.246;2023-08-17T01:12:48;2.95;;;1.25;;
80332;SDS011;69652;51.864;-2.246;2023-08-17T01:15:35;4.72;;;1.27;;
80332;SDS011;69652;51.864;-2.246;2023-08-17T01:18:11;2.92;;;1.10;;
80332;SDS011;69652;51.864;-2.246;2023-08-17T01:20:40;3.78;;;1.48;;
80332;SDS011;69652;51.864;-2.246;2023-08-17T01:23:06;4.38;;;1.00;;
80332;SDS011;69652;51.864;-2.246;2023-08-17T01:25:32;3.05;;;1.23;;
80332;SDS011;69652;51.864;-2.246;2023-08-17T01:28:04;3.63;;;1.30;;
80332;SDS011;69652;51.864;-2.246;2023-08-17T01:30:30;3.10;;;1.20;;
80332;SDS011;69652;51.864;-2.246;2023-08-17T01:33:08;3.08;;;1.15;;
80332;SDS011;69652;51.864;-2.246;2023-08-17T01:35:46;4.80;;;1.20;;
80332;SDS011;69652;51.864;-2.246;2023-08-17T01:38:31;4.03;;;1.20;;
80332;SDS011;69652;51.864;-2.246;2023-08-17T01:40:57;3.55;;;1.25;;
80332;SDS011;69652;51.864;-2.246;2023-08-17T01:43:25;3.30;;;1.17;;
80332;SDS011;69652;51.864;-2.246;2023-08-17T01:45:51;4.90;;;1.60;;
80332;SDS011;69652;51.864;-2.246;2023-08-17T01:48:17;3.13;;;1.52;;
80332;SDS011;69652;51.864;-2.246;2023-08-17T01:50:42;5.88;;;1.95;;
80332;SDS011;69652;51.864;-2.246;2023-08-17T01:53:08;5.13;;;2.22;;
80332;SDS011;69652;51.864;-2.246;2023-08-17T01:55:34;6.18;;;2.00;;
80332;SDS011;69652;51.864;-2.246;2023-08-17T01:58:00;3.75;;;1.30;;
80332;SDS011;69652;51.864;-2.246;2023-08-17T02:00:26;5.18;;;1.50;;
80332;SDS011;69652;51.864;-2.246;2023-08-17T02:02:51;3.40;;;1.38;;
80332;SDS011;69652;51.864;-2.246;2023-08-17T02:05:17;5.32;;;2.00;;
80332;SDS011;69652;51.864;-2.246;2023-08-17T02:07:42;3.67;;;1.60;;
80332;SDS011;69652;51.864;-2.246;2023-08-17T02:10:08;3.78;;;1.67;;
80332;SDS011;69652;51.864;-2.246;2023-08-17T02:12:33;4.47;;;1.70;;
80332;SDS011;69652;51.864;-2.246;2023-08-17T02:14:59;3.67;;;1.80;;
80332;SDS011;69652;51.864;-2.246;2023-08-17T02:17:24;4.45;;;1.95;;
80332;SDS011;69652;51.864;-2.246;2023-08-17T02:19:50;5.68;;;2.35;;
80332;SDS011;69652;51.864;-2.246;2023-08-17T02:22:15;6.28;;;2.65;;
80332;SDS011;69652;51.864;-2.246;2023-08-17T02:24:41;8.43;;;3.20;;
80332;SDS011;69652;51.864;-2.246;2023-08-17T02:27:07;5.65;;;2.53;;
80332;SDS011;69652;51.864;-2.246;2023-08-17T02:29:34;6.75;;;2.83;;
80332;SDS011;69652;51.864;-2.246;2023-08-17T02:31:59;9.68;;;3.85;;
80332;SDS011;69652;51.864;-2.246;2023-08-17T02:34:25;7.13;;;3.30;;
80332;SDS011;69652;51.864;-2.246;2023-08-17T02:36:50;10.75;;;3.92;;
80332;SDS011;69652;51.864;-2.246;2023-08-17T02:39:15;7.90;;;3.05;;
80332;SDS011;69652;51.864;-2.246;2023-08-17T02:41:41;5.75;;;3.45;;
80332;SDS011;69652;51.864;-2.246;2023-08-17T02:44:06;9.73;;;3.92;;
80332;SDS011;69652;51.864;-2.246;2023-08-17T02:46:32;6.60;;;3.42;;
80332;SDS011;69652;51.864;-2.246;2023-08-17T02:48:57;11.68;;;5.38;;
80332;SDS011;69652;51.864;-2.246;2023-08-17T02:51:23;6.15;;;3.22;;
80332;SDS011;69652;51.864;-2.246;2023-08-17T02:53:48;7.75;;;3.97;;
80332;SDS011;69652;51.864;-2.246;2023-08-17T02:56:14;6.70;;;3.70;;
80332;SDS011;69652;51.864;-2.246;2023-08-17T02:58:39;7.05;;;3.00;;
80332;SDS011;69652;51.864;-2.246;2023-08-17T03:01:06;7.38;;;3.95;;
80332;SDS011;69652;51.864;-2.246;2023-08-17T03:03:32;8.80;;;3.88;;
80332;SDS011;69652;51.864;-2.246;2023-08-17T03:05:57;5.57;;;2.45;;
80332;SDS011;69652;51.864;-2.246;2023-08-17T03:08:23;8.80;;;3.85;;
80332;SDS011;69652;51.864;-2.246;2023-08-17T03:10:48;8.85;;;3.50;;
80332;SDS011;69652;51.864;-2.246;2023-08-17T03:13:14;8.30;;;3.47;;
80332;SDS011;69652;51.864;-2.246;2023-08-17T03:15:40;5.10;;;2.80;;
80332;SDS011;69652;51.864;-2.246;2023-08-17T03:18:05;5.18;;;2.70;;
80332;SDS011;69652;51.864;-2.246;2023-08-17T03:20:31;6.80;;;3.10;;
80332;SDS011;69652;51.864;-2.246;2023-08-17T03:22:57;9.05;;;3.70;;
80332;SDS011;69652;51.864;-2.246;2023-08-17T03:25:23;6.35;;;2.80;;
80332;SDS011;69652;51.864;-2.246;2023-08-17T03:27:48;6.68;;;3.13;;
80332;SDS011;69652;51.864;-2.246;2023-08-17T03:30:14;10.10;;;3.25;;
80332;SDS011;69652;51.864;-2.246;2023-08-17T03:32:39;5.63;;;3.13;;
80332;SDS011;69652;51.864;-2.246;2023-08-17T03:35:06;6.95;;;2.25;;
80332;SDS011;69652;51.864;-2.246;2023-08-17T03:37:31;6.82;;;2.58;;
80332;SDS011;69652;51.864;-2.246;2023-08-17T03:39:57;5.57;;;2.80;;
80332;SDS011;69652;51.864;-2.246;2023-08-17T03:42:22;6.40;;;2.88;;
80332;SDS011;69652;51.864;-2.246;2023-08-17T03:44:48;4.55;;;2.38;;
80332;SDS011;69652;51.864;-2.246;2023-08-17T03:47:13;5.22;;;2.08;;
80332;SDS011;69652;51.864;-2.246;2023-08-17T03:49:39;8.27;;;3.83;;
80332;SDS011;69652;51.864;-2.246;2023-08-17T03:52:05;7.00;;;3.17;;
80332;SDS011;69652;51.864;-2.246;2023-08-17T03:54:30;8.18;;;3.38;;
80332;SDS011;69652;51.864;-2.246;2023-08-17T03:56:56;7.65;;;3.42;;
80332;SDS011;69652;51.864;-2.246;2023-08-17T03:59:21;5.93;;;2.53;;
80332;SDS011;69652;51.864;-2.246;2023-08-17T04:01:47;4.68;;;2.80;;
80332;SDS011;69652;51.864;-2.246;2023-08-17T04:04:12;7.65;;;3.70;;
80332;SDS011;69652;51.864;-2.246;2023-08-17T04:06:38;6.50;;;3.80;;
80332;SDS011;69652;51.864;-2.246;2023-08-17T04:09:04;7.45;;;3.15;;
80332;SDS011;69652;51.864;-2.246;2023-08-17T04:11:30;5.43;;;2.67;;
80332;SDS011;69652;51.864;-2.246;2023-08-17T04:13:55;9.60;;;4.03;;
80332;SDS011;69652;51.864;-2.246;2023-08-17T04:16:21;12.20;;;4.82;;
80332;SDS011;69652;51.864;-2.246;2023-08-17T04:18:46;8.55;;;4.55;;
80332;SDS011;69652;51.864;-2.246;2023-08-17T04:21:12;6.43;;;3.50;;
80332;SDS011;69652;51.864;-2.246;2023-08-17T04:23:37;7.55;;;3.60;;
80332;SDS011;69652;51.864;-2.246;2023-08-17T04:26:02;14.75;;;5.57;;
80332;SDS011;69652;51.864;-2.246;2023-08-17T04:28:28;7.22;;;3.47;;
80332;SDS011;69652;51.864;-2.246;2023-08-17T04:30:53;7.93;;;3.60;;
80332;SDS011;69652;51.864;-2.246;2023-08-17T04:33:19;9.82;;;4.75;;
80332;SDS011;69652;51.864;-2.246;2023-08-17T04:35:46;9.65;;;3.97;;
80332;SDS011;69652;51.864;-2.246;2023-08-17T04:38:13;7.57;;;3.95;;
80332;SDS011;69652;51.864;-2.246;2023-08-17T04:40:38;9.10;;;4.35;;
80332;SDS011;69652;51.864;-2.246;2023-08-17T04:43:04;10.43;;;4.45;;
80332;SDS011;69652;51.864;-2.246;2023-08-17T04:45:29;9.00;;;4.15;;
80332;SDS011;69652;51.864;-2.246;2023-08-17T04:47:55;12.10;;;5.00;;
80332;SDS011;69652;51.864;-2.246;2023-08-17T04:50:20;11.77;;;5.95;;
80332;SDS011;69652;51.864;-2.246;2023-08-17T04:52:46;9.95;;;4.60;;
80332;SDS011;69652;51.864;-2.246;2023-08-17T04:55:12;10.57;;;5.45;;
80332;SDS011;69652;51.864;-2.246;2023-08-17T04:57:38;7.88;;;3.72;;
80332;SDS011;69652;51.864;-2.246;2023-08-17T05:00:04;8.40;;;3.88;;
80332;SDS011;69652;51.864;-2.246;2023-08-17T05:02:34;10.27;;;4.68;;
80332;SDS011;69652;51.864;-2.246;2023-08-17T05:04:59;9.30;;;4.20;;
80332;SDS011;69652;51.864;-2.246;2023-08-17T05:07:25;8.32;;;4.10;;
80332;SDS011;69652;51.864;-2.246;2023-08-17T05:09:50;5.95;;;3.47;;
80332;SDS011;69652;51.864;-2.246;2023-08-17T05:12:16;7.78;;;4.72;;
80332;SDS011;69652;51.864;-2.246;2023-08-17T05:14:41;9.23;;;5.57;;
80332;SDS011;69652;51.864;-2.246;2023-08-17T05:17:07;11.13;;;5.65;;
80332;SDS011;69652;51.864;-2.246;2023-08-17T05:19:32;16.45;;;6.00;;
80332;SDS011;69652;51.864;-2.246;2023-08-17T05:21:57;11.07;;;5.82;;
80332;SDS011;69652;51.864;-2.246;2023-08-17T05:24:23;9.38;;;4.32;;
80332;SDS011;69652;51.864;-2.246;2023-08-17T05:26:48;8.63;;;3.92;;
80332;SDS011;69652;51.864;-2.246;2023-08-17T05:29:14;7.75;;;4.50;;
80332;SDS011;69652;51.864;-2.246;2023-08-17T05:31:39;10.25;;;4.18;;
80332;SDS011;69652;51.864;-2.246;2023-08-17T05:34:05;9.80;;;4.82;;
80332;SDS011;69652;51.864;-2.246;2023-08-17T05:36:30;12.38;;;5.20;;
80332;SDS011;69652;51.864;-2.246;2023-08-17T05:38:56;9.48;;;4.57;;
80332;SDS011;69652;51.864;-2.246;2023-08-17T05:41:21;10.73;;;4.53;;
80332;SDS011;69652;51.864;-2.246;2023-08-17T05:43:47;10.15;;;4.93;;
80332;SDS011;69652;51.864;-2.246;2023-08-17T05:46:13;7.85;;;4.28;;
80332;SDS011;69652;51.864;-2.246;2023-08-17T05:48:39;9.70;;;5.57;;
80332;SDS011;69652;51.864;-2.246;2023-08-17T05:51:06;8.60;;;3.90;;
80332;SDS011;69652;51.864;-2.246;2023-08-17T05:53:31;11.55;;;4.75;;
80332;SDS011;69652;51.864;-2.246;2023-08-17T05:55:56;7.47;;;4.63;;
80332;SDS011;69652;51.864;-2.246;2023-08-17T05:58:22;7.18;;;4.10;;
80332;SDS011;69652;51.864;-2.246;2023-08-17T06:00:47;7.75;;;3.83;;
80332;SDS011;69652;51.864;-2.246;2023-08-17T06:03:13;13.75;;;5.85;;
80332;SDS011;69652;51.864;-2.246;2023-08-17T06:05:39;12.35;;;5.22;;
80332;SDS011;69652;51.864;-2.246;2023-08-17T06:08:05;12.20;;;5.28;;
80332;SDS011;69652;51.864;-2.246;2023-08-17T06:10:30;11.63;;;6.47;;
80332;SDS011;69652;51.864;-2.246;2023-08-17T06:12:56;9.38;;;5.53;;
80332;SDS011;69652;51.864;-2.246;2023-08-17T06:15:22;15.38;;;6.70;;
80332;SDS011;69652;51.864;-2.246;2023-08-17T06:17:48;10.07;;;5.35;;
80332;SDS011;69652;51.864;-2.246;2023-08-17T06:20:16;8.32;;;4.55;;
80332;SDS011;69652;51.864;-2.246;2023-08-17T06:22:43;9.15;;;4.40;;
80332;SDS011;69652;51.864;-2.246;2023-08-17T06:25:08;10.20;;;4.15;;
80332;SDS011;69652;51.864;-2.246;2023-08-17T06:27:34;12.77;;;7.30;;
80332;SDS011;69652;51.864;-2.246;2023-08-17T06:30:01;9.63;;;4.32;;
80332;SDS011;69652;51.864;-2.246;2023-08-17T06:32:30;11.88;;;5.28;;
80332;SDS011;69652;51.864;-2.246;2023-08-17T06:34:55;11.88;;;5.93;;
80332;SDS011;69652;51.864;-2.246;2023-08-17T06:37:22;11.52;;;5.88;;
80332;SDS011;69652;51.864;-2.246;2023-08-17T06:39:47;9.43;;;4.95;;
80332;SDS011;69652;51.864;-2.246;2023-08-17T06:42:13;10.57;;;4.95;;
80332;SDS011;69652;51.864;-2.246;2023-08-17T06:44:38;8.98;;;4.43;;
80332;SDS011;69652;51.864;-2.246;2023-08-17T06:47:03;16.08;;;6.65;;
80332;SDS011;69652;51.864;-2.246;2023-08-17T06:49:30;8.57;;;4.57;;
80332;SDS011;69652;51.864;-2.246;2023-08-17T06:51:55;10.18;;;5.90;;
80332;SDS011;69652;51.864;-2.246;2023-08-17T06:54:21;12.43;;;6.18;;
80332;SDS011;69652;51.864;-2.246;2023-08-17T06:56:46;7.57;;;4.15;;
80332;SDS011;69652;51.864;-2.246;2023-08-17T06:59:12;11.52;;;6.45;;
80332;SDS011;69652;51.864;-2.246;2023-08-17T07:01:37;9.85;;;5.22;;
80332;SDS011;69652;51.864;-2.246;2023-08-17T07:04:03;10.77;;;5.85;;
80332;SDS011;69652;51.864;-2.246;2023-08-17T07:06:28;13.63;;;6.68;;
80332;SDS011;69652;51.864;-2.246;2023-08-17T07:08:54;11.40;;;5.18;;
80332;SDS011;69652;51.864;-2.246;2023-08-17T07:11:19;11.95;;;5.68;;
80332;SDS011;69652;51.864;-2.246;2023-08-17T07:13:45;11.95;;;6.55;;
80332;SDS011;69652;51.864;-2.246;2023-08-17T07:16:11;10.13;;;4.85;;
80332;SDS011;69652;51.864;-2.246;2023-08-17T07:18:36;10.48;;;6.60;;
80332;SDS011;69652;51.864;-2.246;2023-08-17T07:21:02;9.48;;;3.88;;
80332;SDS011;69652;51.864;-2.246;2023-08-17T07:23:27;8.23;;;3.92;;
80332;SDS011;69652;51.864;-2.246;2023-08-17T07:25:53;11.00;;;6.30;;
80332;SDS011;69652;51.864;-2.246;2023-08-17T07:28:18;15.57;;;7.32;;
80332;SDS011;69652;51.864;-2.246;2023-08-17T07:30:44;10.73;;;5.70;;
80332;SDS011;69652;51.864;-2.246;2023-08-17T07:33:09;8.85;;;4.43;;
80332;SDS011;69652;51.864;-2.246;2023-08-17T07:35:35;9.05;;;3.75;;
80332;SDS011;69652;51.864;-2.246;2023-08-17T07:38:00;13.00;;;4.88;;
80332;SDS011;69652;51.864;-2.246;2023-08-17T07:40:26;9.13;;;5.63;;
80332;SDS011;69652;51.864;-2.246;2023-08-17T07:42:51;10.35;;;4.50;;
80332;SDS011;69652;51.864;-2.246;2023-08-17T07:45:17;7.85;;;4.07;;
80332;SDS011;69652;51.864;-2.246;2023-08-17T07:47:42;8.15;;;3.75;;
80332;SDS011;69652;51.864;-2.246;2023-08-17T07:50:07;10.20;;;4.93;;
80332;SDS011;69652;51.864;-2.246;2023-08-17T07:52:33;7.35;;;3.72;;
80332;SDS011;69652;51.864;-2.246;2023-08-17T07:54:59;16.00;;;5.40;;
80332;SDS011;69652;51.864;-2.246;2023-08-17T07:57:24;10.15;;;4.63;;
80332;SDS011;69652;51.864;-2.246;2023-08-17T07:59:50;9.60;;;4.32;;
80332;SDS011;69652;51.864;-2.246;2023-08-17T08:02:16;13.25;;;4.47;;
80332;SDS011;69652;51.864;-2.246;2023-08-17T08:04:42;7.43;;;4.43;;
80332;SDS011;69652;51.864;-2.246;2023-08-17T08:07:08;7.28;;;3.85;;
80332;SDS011;69652;51.864;-2.246;2023-08-17T08:09:35;7.45;;;4.00;;
80332;SDS011;69652;51.864;-2.246;2023-08-17T08:12:01;6.53;;;3.80;;
80332;SDS011;69652;51.864;-2.246;2023-08-17T08:14:27;7.30;;;4.32;;
80332;SDS011;69652;51.864;-2.246;2023-08-17T08:16:54;11.43;;;5.80;;
80332;SDS011;69652;51.864;-2.246;2023-08-17T08:19:19;9.90;;;4.38;;
80332;SDS011;69652;51.864;-2.246;2023-08-17T08:21:45;6.50;;;3.38;;
80332;SDS011;69652;51.864;-2.246;2023-08-17T08:24:10;8.82;;;3.63;;
80332;SDS011;69652;51.864;-2.246;2023-08-17T08:26:35;10.85;;;4.20;;
80332;SDS011;69652;51.864;-2.246;2023-08-17T08:29:01;11.13;;;4.82;;
80332;SDS011;69652;51.864;-2.246;2023-08-17T08:31:26;8.48;;;4.15;;
80332;SDS011;69652;51.864;-2.246;2023-08-17T08:33:52;10.05;;;3.97;;
80332;SDS011;69652;51.864;-2.246;2023-08-17T08:36:18;9.55;;;3.83;;
80332;SDS011;69652;51.864;-2.246;2023-08-17T08:38:44;7.28;;;2.95;;
80332;SDS011;69652;51.864;-2.246;2023-08-17T08:41:11;9.57;;;4.30;;
80332;SDS011;69652;51.864;-2.246;2023-08-17T08:43:37;11.15;;;4.78;;
80332;SDS011;69652;51.864;-2.246;2023-08-17T08:46:05;6.53;;;3.95;;
80332;SDS011;69652;51.864;-2.246;2023-08-17T08:48:31;9.95;;;4.38;;
80332;SDS011;69652;51.864;-2.246;2023-08-17T08:50:59;8.13;;;3.40;;
80332;SDS011;69652;51.864;-2.246;2023-08-17T08:53:34;9.02;;;4.07;;
80332;SDS011;69652;51.864;-2.246;2023-08-17T08:56:03;7.95;;;3.25;;
80332;SDS011;69652;51.864;-2.246;2023-08-17T08:58:31;7.43;;;3.13;;
80332;SDS011;69652;51.864;-2.246;2023-08-17T09:00:58;6.90;;;3.10;;
80332;SDS011;69652;51.864;-2.246;2023-08-17T09:03:25;7.10;;;2.97;;
80332;SDS011;69652;51.864;-2.246;2023-08-17T09:05:52;11.15;;;4.93;;
80332;SDS011;69652;51.864;-2.246;2023-08-17T09:08:20;11.05;;;5.30;;
80332;SDS011;69652;51.864;-2.246;2023-08-17T09:10:48;10.20;;;4.50;;
80332;SDS011;69652;51.864;-2.246;2023-08-17T09:13:14;8.27;;;2.78;;
80332;SDS011;69652;51.864;-2.246;2023-08-17T09:15:40;6.28;;;2.65;;
80332;SDS011;69652;51.864;-2.246;2023-08-17T09:18:06;5.28;;;2.80;;
80332;SDS011;69652;51.864;-2.246;2023-08-17T09:20:44;4.57;;;2.63;;
80332;SDS011;69652;51.864;-2.246;2023-08-17T09:23:12;8.73;;;3.90;;
80332;SDS011;69652;51.864;-2.246;2023-08-17T09:25:39;10.73;;;3.85;;
80332;SDS011;69652;51.864;-2.246;2023-08-17T09:28:09;7.28;;;3.40;;
80332;SDS011;69652;51.864;-2.246;2023-08-17T09:33:25;9.27;;;3.17;;
80332;SDS011;69652;51.864;-2.246;2023-08-17T09:35:52;5.95;;;3.08;;
80332;SDS011;69652;51.864;-2.246;2023-08-17T09:38:19;9.30;;;3.03;;
80332;SDS011;69652;51.864;-2.246;2023-08-17T09:40:47;8.85;;;3.03;;
80332;SDS011;69652;51.864;-2.246;2023-08-17T09:43:16;5.05;;;2.15;;
80332;SDS011;69652;51.864;-2.246;2023-08-17T09:45:43;8.40;;;3.53;;
80332;SDS011;69652;51.864;-2.246;2023-08-17T09:48:11;9.70;;;3.00;;
80332;SDS011;69652;51.864;-2.246;2023-08-17T09:50:40;4.65;;;2.22;;
80332;SDS011;69652;51.864;-2.246;2023-08-17T09:53:11;8.68;;;2.75;;
80332;SDS011;69652;51.864;-2.246;2023-08-17T09:55:46;9.30;;;2.35;;
80332;SDS011;69652;51.864;-2.246;2023-08-17T09:58:13;7.20;;;3.25;;
80332;SDS011;69652;51.864;-2.246;2023-08-17T10:00:45;8.15;;;2.85;;
80332;SDS011;69652;51.864;-2.246;2023-08-17T10:03:12;6.38;;;2.30;;
80332;SDS011;69652;51.864;-2.246;2023-08-17T10:05:39;7.13;;;2.63;;
80332;SDS011;69652;51.864;-2.246;2023-08-17T10:08:07;7.32;;;2.85;;
80332;SDS011;69652;51.864;-2.246;2023-08-17T10:10:35;5.05;;;1.98;;
80332;SDS011;69652;51.864;-2.246;2023-08-17T10:13:09;7.13;;;2.33;;
80332;SDS011;69652;51.864;-2.246;2023-08-17T10:18:29;5.20;;;2.20;;
80332;SDS011;69652;51.864;-2.246;2023-08-17T10:21:05;7.53;;;2.38;;
80332;SDS011;69652;51.864;-2.246;2023-08-17T10:23:32;9.90;;;3.03;;
80332;SDS011;69652;51.864;-2.246;2023-08-17T10:26:00;6.22;;;2.00;;
80332;SDS011;69652;51.864;-2.246;2023-08-17T10:28:27;4.38;;;1.67;;
80332;SDS011;69652;51.864;-2.246;2023-08-17T10:30:53;8.80;;;2.95;;
80332;SDS011;69652;51.864;-2.246;2023-08-17T10:33:19;7.90;;;2.20;;
80332;SDS011;69652;51.864;-2.246;2023-08-17T10:35:45;6.10;;;2.03;;
80332;SDS011;69652;51.864;-2.246;2023-08-17T10:38:11;9.75;;;3.08;;
80332;SDS011;69652;51.864;-2.246;2023-08-17T10:40:38;6.10;;;2.60;;
80332;SDS011;69652;51.864;-2.246;2023-08-17T10:43:07;9.23;;;3.53;;
80332;SDS011;69652;51.864;-2.246;2023-08-17T10:45:33;8.13;;;2.47;;
80332;SDS011;69652;51.864;-2.246;2023-08-17T10:50:32;5.45;;;2.03;;
80332;SDS011;69652;51.864;-2.246;2023-08-17T10:53:10;5.10;;;1.90;;
80332;SDS011;69652;51.864;-2.246;2023-08-17T10:58:07;5.10;;;1.80;;
80332;SDS011;69652;51.864;-2.246;2023-08-17T11:00:36;4.75;;;1.80;;
80332;SDS011;69652;51.864;-2.246;2023-08-17T11:05:42;6.30;;;2.22;;
80332;SDS011;69652;51.864;-2.246;2023-08-17T11:08:21;6.45;;;1.90;;
80332;SDS011;69652;51.864;-2.246;2023-08-17T11:13:23;5.38;;;1.95;;
80332;SDS011;69652;51.864;-2.246;2023-08-17T11:15:49;8.88;;;2.10;;
80332;SDS011;69652;51.864;-2.246;2023-08-17T11:18:14;5.35;;;1.67;;
80332;SDS011;69652;51.864;-2.246;2023-08-17T11:20:40;7.80;;;1.80;;
80332;SDS011;69652;51.864;-2.246;2023-08-17T11:23:07;11.48;;;5.38;;
80332;SDS011;69652;51.864;-2.246;2023-08-17T11:25:34;23.27;;;12.15;;
80332;SDS011;69652;51.864;-2.246;2023-08-17T11:28:00;9.05;;;4.32;;
80332;SDS011;69652;51.864;-2.246;2023-08-17T11:30:27;9.75;;;5.05;;
80332;SDS011;69652;51.864;-2.246;2023-08-17T11:32:53;19.13;;;13.43;;
80332;SDS011;69652;51.864;-2.246;2023-08-17T11:35:20;11.27;;;4.50;;
80332;SDS011;69652;51.864;-2.246;2023-08-17T11:37:46;10.07;;;4.80;;
80332;SDS011;69652;51.864;-2.246;2023-08-17T11:40:15;8.18;;;2.38;;
80332;SDS011;69652;51.864;-2.246;2023-08-17T11:42:41;8.52;;;2.40;;
80332;SDS011;69652;51.864;-2.246;2023-08-17T11:45:07;8.75;;;2.03;;
80332;SDS011;69652;51.864;-2.246;2023-08-17T11:47:39;6.80;;;2.72;;
80332;SDS011;69652;51.864;-2.246;2023-08-17T11:50:07;8.32;;;2.67;;
80332;SDS011;69652;51.864;-2.246;2023-08-17T11:52:35;7.28;;;2.20;;
80332;SDS011;69652;51.864;-2.246;2023-08-17T11:55:07;5.45;;;2.00;;
80332;SDS011;69652;51.864;-2.246;2023-08-17T11:57:37;7.78;;;2.15;;
80332;SDS011;69652;51.864;-2.246;2023-08-17T12:00:03;7.57;;;2.97;;
80332;SDS011;69652;51.864;-2.246;2023-08-17T12:02:37;4.70;;;2.22;;
80332;SDS011;69652;51.864;-2.246;2023-08-17T12:05:07;6.57;;;2.40;;
80332;SDS011;69652;51.864;-2.246;2023-08-17T12:07:34;10.32;;;4.47;;
80332;SDS011;69652;51.864;-2.246;2023-08-17T12:10:01;7.65;;;2.90;;
80332;SDS011;69652;51.864;-2.246;2023-08-17T12:12:27;5.65;;;2.03;;
80332;SDS011;69652;51.864;-2.246;2023-08-17T12:14:57;9.48;;;2.30;;
80332;SDS011;69652;51.864;-2.246;2023-08-17T12:17:23;6.32;;;2.22;;
80332;SDS011;69652;51.864;-2.246;2023-08-17T12:19:49;6.03;;;2.00;;
80332;SDS011;69652;51.864;-2.246;2023-08-17T12:22:18;4.85;;;1.85;;
80332;SDS011;69652;51.864;-2.246;2023-08-17T12:24:44;3.97;;;1.60;;
80332;SDS011;69652;51.864;-2.246;2023-08-17T12:27:10;5.30;;;1.80;;
80332;SDS011;69652;51.864;-2.246;2023-08-17T12:29:51;5.45;;;2.00;;
80332;SDS011;69652;51.864;-2.246;2023-08-17T12:32:17;5.78;;;2.05;;
80332;SDS011;69652;51.864;-2.246;2023-08-17T12:34:44;7.35;;;2.03;;
80332;SDS011;69652;51.864;-2.246;2023-08-17T12:37:10;12.35;;;6.30;;
80332;SDS011;69652;51.864;-2.246;2023-08-17T12:39:36;7.88;;;3.00;;
80332;SDS011;69652;51.864;-2.246;2023-08-17T12:42:02;9.52;;;2.65;;
80332;SDS011;69652;51.864;-2.246;2023-08-17T12:44:28;6.65;;;2.10;;
80332;SDS011;69652;51.864;-2.246;2023-08-17T12:46:54;6.47;;;1.85;;
80332;SDS011;69652;51.864;-2.246;2023-08-17T12:49:19;4.30;;;1.45;;
80332;SDS011;69652;51.864;-2.246;2023-08-17T12:51:44;4.80;;;1.40;;
80332;SDS011;69652;51.864;-2.246;2023-08-17T12:54:10;9.27;;;2.33;;
80332;SDS011;69652;51.864;-2.246;2023-08-17T12:56:35;7.65;;;2.33;;
80332;SDS011;69652;51.864;-2.246;2023-08-17T12:59:01;5.25;;;1.63;;
80332;SDS011;69652;51.864;-2.246;2023-08-17T13:01:26;4.55;;;1.80;;
80332;SDS011;69652;51.864;-2.246;2023-08-17T13:03:52;4.03;;;1.42;;
80332;SDS011;69652;51.864;-2.246;2023-08-17T13:06:17;6.30;;;1.60;;
80332;SDS011;69652;51.864;-2.246;2023-08-17T13:08:43;5.25;;;1.58;;
80332;SDS011;69652;51.864;-2.246;2023-08-17T13:11:10;4.65;;;1.40;;
80332;SDS011;69652;51.864;-2.246;2023-08-17T13:13:35;5.00;;;1.30;;
80332;SDS011;69652;51.864;-2.246;2023-08-17T13:16:01;8.20;;;3.45;;
80332;SDS011;69652;51.864;-2.246;2023-08-17T13:18:26;6.40;;;3.38;;
80332;SDS011;69652;51.864;-2.246;2023-08-17T13:20:53;7.05;;;2.15;;
80332;SDS011;69652;51.864;-2.246;2023-08-17T13:23:19;5.10;;;1.88;;
80332;SDS011;69652;51.864;-2.246;2023-08-17T13:25:45;5.13;;;2.08;;
80332;SDS011;69652;51.864;-2.246;2023-08-17T13:28:10;6.63;;;1.30;;
80332;SDS011;69652;51.864;-2.246;2023-08-17T13:30:37;7.13;;;1.48;;
80332;SDS011;69652;51.864;-2.246;2023-08-17T13:33:03;3.33;;;1.20;;
80332;SDS011;69652;51.864;-2.246;2023-08-17T13:35:32;4.65;;;1.30;;
80332;SDS011;69652;51.864;-2.246;2023-08-17T13:37:58;6.20;;;1.58;;
80332;SDS011;69652;51.864;-2.246;2023-08-17T13:40:24;7.03;;;1.30;;
80332;SDS011;69652;51.864;-2.246;2023-08-17T13:42:49;3.03;;;1.05;;
80332;SDS011;69652;51.864;-2.246;2023-08-17T13:45:15;3.90;;;1.17;;
80332;SDS011;69652;51.864;-2.246;2023-08-17T13:47:41;4.35;;;1.17;;
80332;SDS011;69652;51.864;-2.246;2023-08-17T13:50:06;4.10;;;1.27;;
80332;SDS011;69652;51.864;-2.246;2023-08-17T13:52:32;6.03;;;1.52;;
80332;SDS011;69652;51.864;-2.246;2023-08-17T13:54:57;7.03;;;2.65;;
80332;SDS011;69652;51.864;-2.246;2023-08-17T13:57:23;9.65;;;3.47;;
80332;SDS011;69652;51.864;-2.246;2023-08-17T13:59:48;11.13;;;6.18;;
80332;SDS011;69652;51.864;-2.246;2023-08-17T14:02:14;5.45;;;1.83;;
80332;SDS011;69652;51.864;-2.246;2023-08-17T14:04:39;9.55;;;4.05;;
80332;SDS011;69652;51.864;-2.246;2023-08-17T14:07:05;9.43;;;2.38;;
80332;SDS011;69652;51.864;-2.246;2023-08-17T14:09:31;10.02;;;3.80;;
80332;SDS011;69652;51.864;-2.246;2023-08-17T14:11:56;12.75;;;4.53;;
80332;SDS011;69652;51.864;-2.246;2023-08-17T14:14:22;19.83;;;10.07;;
80332;SDS011;69652;51.864;-2.246;2023-08-17T14:16:48;20.75;;;12.27;;
80332;SDS011;69652;51.864;-2.246;2023-08-17T14:19:13;11.48;;;5.75;;
80332;SDS011;69652;51.864;-2.246;2023-08-17T14:21:38;7.45;;;2.28;;
80332;SDS011;69652;51.864;-2.246;2023-08-17T14:24:04;6.18;;;1.70;;
80332;SDS011;69652;51.864;-2.246;2023-08-17T14:26:31;7.25;;;3.28;;
80332;SDS011;69652;51.864;-2.246;2023-08-17T14:28:57;5.45;;;1.45;;
80332;SDS011;69652;51.864;-2.246;2023-08-17T14:31:22;5.03;;;1.50;;
80332;SDS011;69652;51.864;-2.246;2023-08-17T14:33:48;9.43;;;3.40;;
80332;SDS011;69652;51.864;-2.246;2023-08-17T14:36:14;9.55;;;3.92;;
80332;SDS011;69652;51.864;-2.246;2023-08-17T14:38:40;5.95;;;1.80;;
80332;SDS011;69652;51.864;-2.246;2023-08-17T14:41:05;13.75;;;8.38;;
80332;SDS011;69652;51.864;-2.246;2023-08-17T14:43:33;6.80;;;2.17;;